Map

Track Data

SID SEASON NUMBER BASIN SUBBASIN NAME ISO_TIME NATURE LAT LON WMO_WIND WMO_PRES WMO_AGENCY TRACK_TYPE DIST2LAND LANDFALL IFLAG USA_AGENCY USA_ATCF_ID USA_LAT USA_LON USA_RECORD USA_STATUS USA_WIND USA_PRES USA_SSHS USA_R34_NE USA_R34_SE USA_R34_SW USA_R34_NW USA_R50_NE USA_R50_SE USA_R50_SW USA_R50_NW USA_R64_NE USA_R64_SE USA_R64_SW USA_R64_NW USA_POCI USA_ROCI USA_RMW USA_EYE TOKYO_LAT TOKYO_LON TOKYO_GRADE TOKYO_WIND TOKYO_PRES TOKYO_R50_DIR TOKYO_R50_LONG TOKYO_R50_SHORT TOKYO_R30_DIR TOKYO_R30_LONG TOKYO_R30_SHORT TOKYO_LAND CMA_LAT CMA_LON CMA_CAT CMA_WIND CMA_PRES HKO_LAT HKO_LON HKO_CAT HKO_WIND HKO_PRES NEWDELHI_LAT NEWDELHI_LON NEWDELHI_GRADE NEWDELHI_WIND NEWDELHI_PRES NEWDELHI_CI NEWDELHI_DP NEWDELHI_POCI REUNION_LAT REUNION_LON REUNION_TYPE REUNION_WIND REUNION_PRES REUNION_TNUM REUNION_CI REUNION_RMW REUNION_R34_NE REUNION_R34_SE REUNION_R34_SW REUNION_R34_NW REUNION_R50_NE REUNION_R50_SE REUNION_R50_SW REUNION_R50_NW REUNION_R64_NE REUNION_R64_SE REUNION_R64_SW REUNION_R64_NW BOM_LAT BOM_LON BOM_TYPE BOM_WIND BOM_PRES BOM_TNUM BOM_CI BOM_RMW BOM_R34_NE BOM_R34_SE BOM_R34_SW BOM_R34_NW BOM_R50_NE BOM_R50_SE BOM_R50_SW BOM_R50_NW BOM_R64_NE BOM_R64_SE BOM_R64_SW BOM_R64_NW BOM_ROCI BOM_POCI BOM_EYE BOM_POS_METHOD BOM_PRES_METHOD NADI_LAT NADI_LON NADI_CAT NADI_WIND NADI_PRES WELLINGTON_LAT WELLINGTON_LON WELLINGTON_WIND WELLINGTON_PRES DS824_LAT DS824_LON DS824_STAGE DS824_WIND DS824_PRES TD9636_LAT TD9636_LON TD9636_STAGE TD9636_WIND TD9636_PRES TD9635_LAT TD9635_LON TD9635_WIND TD9635_PRES TD9635_ROCI NEUMANN_LAT NEUMANN_LON NEUMANN_CLASS NEUMANN_WIND NEUMANN_PRES MLC_LAT MLC_LON MLC_CLASS MLC_WIND MLC_PRES USA_GUST BOM_GUST BOM_GUST_PER REUNION_GUST REUNION_GUST_PER USA_SEAHGT USA_SEARAD_NE USA_SEARAD_SE USA_SEARAD_SW USA_SEARAD_NW STORM_SPEED STORM_DIR
2000031S11074 2000 8 SI MM DAMIENNE 2000-01-30 18:00:00 TS -10.8667 73.6667 25 1003 reunion main 1998 1998 O____O______O_ jtwc_sh SH102000 -11.1000 73.7000 20 -1 -10.4000 73.6000 2 25 1003 1.50000 1.50000 -11.1000 73.7000 TC 20 7 124
2000031S11074 2000 8 SI MM DAMIENNE 2000-01-30 21:00:00 TS -11.0650 73.9624 main 2013 2013 P____P______P_ SH102000 -11.2501 74.0024 20 -1 -10.6950 73.8825 2 25 1002 -11.2501 74.0024 TC 20 7 124
2000031S11074 2000 8 SI MM DAMIENNE 2000-01-31 00:00:00 TS -11.2667 74.2667 25 1002 reunion main 2029 2029 O____O______O_ jtwc_sh SH102000 -11.4000 74.3000 20 -1 -11.0000 74.2000 2 25 1002 2.00000 2.00000 -11.4000 74.3000 TC 20 7 124
2000031S11074 2000 8 SI MM DAMIENNE 2000-01-31 03:00:00 TS -11.4716 74.5833 main 2046 2046 P____P______P_ SH102000 -11.5499 74.5925 22 -1 -11.3151 74.5649 2 25 1001 -11.5499 74.5925 TC 22 7 123
2000031S11074 2000 8 SI MM DAMIENNE 2000-01-31 06:00:00 TS -11.6667 74.9000 25 1000 reunion main 2063 2063 O____O______O_ jtwc_sh SH102000 -11.7000 74.9000 25 -1 -11.6000 74.9000 2 25 1000 2.00000 2.00000 -11.7000 74.9000 TC 25 7 121
2000031S11074 2000 8 SI MM DAMIENNE 2000-01-31 09:00:00 TS -11.8258 75.1951 main 2071 2071 P____P______P_ SH102000 -11.8350 75.2426 25 -1 -11.8074 75.1002 2 26 999 -11.8350 75.2426 TC 25 7 120
2000031S11074 2000 8 SI MM DAMIENNE 2000-01-31 12:00:00 TS -12.0000 75.5000 27 999 reunion main 2083 2080 O____O______O_ jtwc_sh SH102000 -12.0000 75.6000 25 -1 -12.0000 75.3000 2 27 999 2.00000 2.00000 -12.0000 75.6000 TC 25 7 123
2000031S11074 2000 8 SI MM DAMIENNE 2000-01-31 15:00:00 TS -12.2374 75.8325 main 2096 2096 P____P______P_ SH102000 -12.2350 75.9500 25 -1 -12.2424 75.5976 2 28 998 -12.2350 75.9500 TC 25 9 126
2000031S11074 2000 8 SI MM DAMIENNE 2000-01-31 18:00:00 TS -12.5000 76.2000 30 998 reunion main 2118 2115 O____O______O_ jtwc_sh SH102000 -12.5000 76.3000 25 -1 -12.5000 76.0000 2 30 998 2.50000 2.50000 -12.5000 76.3000 TC 25 9 124
2000031S11074 2000 8 SI MM DAMIENNE 2000-01-31 21:00:00 TS -12.7324 76.5944 main 2130 2130 P____P______P_ SH102000 -12.7274 76.6352 27 -1 -12.7425 76.5126 2 30 997 -12.7274 76.6352 TC 27 10 122
2000031S11074 2000 8 SI MM DAMIENNE 2000-02-01 00:00:00 TS -13.0000 77.0333 30 997 reunion main 2154 2152 O____O______O_ jtwc_sh SH102000 -13.0000 77.0000 30 -1 -13.0000 77.1000 2 30 997 2.50000 2.50000 -13.0000 77.0000 TC 30 11 122
2000031S11074 2000 8 SI MM DAMIENNE 2000-02-01 03:00:00 TS -13.3219 77.5757 main 2176 2176 P____P______P_ SH102000 -13.3627 77.4723 27 -1 -13.2403 77.7823 2 32 996 -13.3627 77.4723 TC 27 12 127
2000031S11074 2000 8 SI MM DAMIENNE 2000-02-01 06:00:00 TS -13.7333 78.0333 35 995 reunion main 2214 2214 O____O______O_ jtwc_sh SH102000 -13.8000 77.9000 25 -1 -13.6000 78.3000 3 35 995 3.00000 3.00000 -13.8000 77.9000 TC 25 12 145
2000031S11074 2000 8 SI MM DAMIENNE 2000-02-01 09:00:00 TS -14.2882 78.2667 main 2275 2257 P____P______P_ SH102000 -14.3074 78.1824 25 -1 -14.2497 78.4352 3 35 994 -14.3074 78.1824 TC 25 11 167
2000031S11074 2000 8 SI MM DAMIENNE 2000-02-01 12:00:00 TS -14.8333 78.3000 35 994 reunion main 2257 2232 O____O______O_ jtwc_sh SH102000 -14.8000 78.3000 25 -1 -14.9000 78.3000 3 35 994 2.50000 3.00000 -14.8000 78.3000 TC 25 9 184
2000031S11074 2000 8 SI MM DAMIENNE 2000-02-01 15:00:00 TS -15.2241 78.1935 main 2232 2202 P____P______P_ SH102000 -15.2024 78.2752 35 0 -15.2676 78.0302 3 35 994 -15.2024 78.2752 TC 35 7 206
2000031S11074 2000 8 SI MM DAMIENNE 2000-02-01 18:00:00 TS -15.5000 77.9667 35 995 reunion main 2202 2165 O____O______O_ jtwc_sh SH102000 -15.5000 78.1000 45 0 -15.5000 77.7000 3 35 995 2.50000 3.00000 -15.5000 78.1000 TC 45 7 225
2000031S11074 2000 8 SI MM DAMIENNE 2000-02-01 21:00:00 TS -15.6942 77.7074 main 2165 2131 P____P______P_ SH102000 -15.6801 77.8225 47 0 -15.7224 77.4774 3 34 995 -15.6801 77.8225 TC 47 6 237
2000031S11074 2000 8 SI MM DAMIENNE 2000-02-02 00:00:00 TS -15.8333 77.4333 33 996 reunion main 2131 2104 O____O______O_ jtwc_sh SH102000 -15.8000 77.5000 50 0 -15.9000 77.3000 2 33 996 2.00000 2.50000 -15.8000 77.5000 TC 50 6 240
2000031S11074 2000 8 SI MM DAMIENNE 2000-02-02 03:00:00 TS -15.9683 77.2066 main 2104 2080 P____P______P_ SH102000 -15.9350 77.2349 42 0 -16.0350 77.1499 2 31 997 -15.9350 77.2349 TC 42 5 234
2000031S11074 2000 8 SI MM DAMIENNE 2000-02-02 06:00:00 TS -16.1333 77.0000 30 998 reunion main 2080 2051 O____O______O_ jtwc_sh SH102000 -16.1000 77.0000 35 0 -16.2000 77.0000 2 30 998 2.00000 2.50000 -16.1000 77.0000 TC 35 6 222
2000031S11074 2000 8 SI MM DAMIENNE 2000-02-02 09:00:00 TS -16.3749 76.8224 main 2051 2024 P____P______P_ SH102000 -16.3199 76.7999 35 0 -16.4847 76.8673 2 27 999 -16.3199 76.7999 TC 35 7 216
2000031S11074 2000 8 SI MM DAMIENNE 2000-02-02 12:00:00 TS -16.6667 76.6000 25 1000 reunion main 2021 1982 O____O______O_ jtwc_sh SH102000 -16.6000 76.6000 35 0 -16.8000 76.6000 2 25 1000 1.50000 2.00000 -16.6000 76.6000 TC 35 8 219
2000031S11074 2000 8 SI MM DAMIENNE 2000-02-02 15:00:00 TS -16.9906 76.3057 main 1982 1933 P____P______P_ SH102000 -16.9646 76.4174 30 -1 -17.0425 76.0822 2 25 1000 -16.9646 76.4174 TC 30 9 228
2000031S11074 2000 8 SI MM DAMIENNE 2000-02-02 18:00:00 TS -17.3000 75.8667 25 1000 reunion main 1933 1866 O____O______O_ jtwc_sh SH102000 -17.3000 76.1000 25 -1 -17.3000 75.4000 2 25 1000 2.00000 2.00000 -17.3000 76.1000 TC 25 11 242
2000031S11074 2000 8 SI MM DAMIENNE 2000-02-02 21:00:00 TS -17.5266 75.2481 main 1856 1778 P____P______P_ SH102000 -17.4572 75.5544 25 -1 -17.6653 74.6355 2 25 1000 -17.4572 75.5544 TC 25 14 252
2000031S11074 2000 8 SI MM DAMIENNE 2000-02-03 00:00:00 TS -17.7333 74.5000 25 1000 reunion main 1778 1689 O____O______O_ jtwc_sh SH102000 -17.6000 74.8000 25 -1 -18.0000 73.9000 2 25 1000 2.00000 2.00000 -17.6000 74.8000 TC 25 15 253
2000031S11074 2000 8 SI MM DAMIENNE 2000-02-03 03:00:00 TS -17.9710 73.7025 main 1689 1601 P____P______P_ SH102000 -17.8781 73.8579 25 -1 -18.1568 73.3917 2 25 1000 -17.8781 73.8579 TC 25 16 252
2000031S11074 2000 8 SI MM DAMIENNE 2000-02-03 06:00:00 TS -18.2400 72.9000 25 1000 reunion main 1601 1523 O____O______O_ jtwc_sh SH102000 -18.2000 72.9000 25 -1 -18.3000 72.9000 2 25 1000 2.00000 2.00000 -18.2000 72.9000 TC 25 16 248
2000031S11074 2000 8 SI MM DAMIENNE 2000-02-03 09:00:00 TS -18.5536 72.1902 main 1521 1443 P____P______P_ SH102000 -18.5073 72.1351 25 -1 -18.5999 72.2453 2 25 1000 -18.5073 72.1351 TC 25 15 245
2000031S11074 2000 8 SI MM DAMIENNE 2000-02-03 12:00:00 TS -18.8667 71.5000 25 1000 reunion main 1443 1367 O____O______O_ jtwc_sh SH102000 -18.8000 71.5000 25 -1 -18.9000 71.5000 2 25 1000 1.50000 2.00000 -18.8000 71.5000 TC 25 15 249
2000031S11074 2000 8 SI MM DAMIENNE 2000-02-03 15:00:00 TS -19.0799 70.7072 main 1356 1271 _____P________ SH102000 -1 -19.0799 70.7072 2 25 1000 TC 16 258
2000031S11074 2000 8 SI MM DAMIENNE 2000-02-03 18:00:00 TS -19.2000 69.9000 25 1001 reunion main 1271 1187 _____O________ -1 -19.2000 69.9000 2 25 1001 1.50000 2.00000 15 261
2000031S11074 2000 8 SI MM DAMIENNE 2000-02-03 21:00:00 TS -19.3300 69.1051 main 1187 1112 _____P________ -1 -19.3300 69.1051 2 25 1001 14 262
2000031S11074 2000 8 SI MM DAMIENNE 2000-02-04 00:00:00 TS -19.4000 68.4000 25 1002 reunion main 1112 1060 _____O________ -1 -19.4000 68.4000 2 25 1002 1.50000 1.50000 11 267
2000031S11074 2000 8 SI MM DAMIENNE 2000-02-04 03:00:00 TS -19.3942 67.8926 main 1060 1010 _____P________ -1 -19.3942 67.8926 2 22 1003 9 276
2000031S11074 2000 8 SI MM DAMIENNE 2000-02-04 06:00:00 TS -19.3000 67.4000 20 1004 reunion main 1010 951 _____O________ -1 -19.3000 67.4000 2 20 1004 1.50000 1.50000 11 284
2000031S11074 2000 8 SI MM DAMIENNE 2000-02-04 09:00:00 TS -19.1150 66.7372 main 941 872 _____P________ -1 -19.1150 66.7372 2 20 1004 14 287
2000031S11074 2000 8 SI MM DAMIENNE 2000-02-04 12:00:00 TS -18.9000 66.0000 20 1005 reunion main 872 803 _____O________ -1 -18.9000 66.0000 6 20 1005 9.90000 15 285
2000031S11074 2000 8 SI MM DAMIENNE 2000-02-04 15:00:00 TS -18.7348 65.2576 main 806 727 _____P________ -1 -18.7348 65.2576 6 20 1005 15 282
2000031S11074 2000 8 SI MM DAMIENNE 2000-02-04 18:00:00 TS -18.6000 64.5000 20 1006 reunion main 727 660 _____O________ -1 -18.6000 64.5000 6 20 1006 9.90000 15 280
2000031S11074 2000 8 SI MM DAMIENNE 2000-02-04 21:00:00 TS -18.4849 63.7351 main 650 585 _____P________ -1 -18.4849 63.7351 6 20 1006 14 278
2000031S11074 2000 8 SI MM DAMIENNE 2000-02-05 00:00:00 TS -18.4000 63.0000 20 1007 reunion main 585 527 _____O________ -1 -18.4000 63.0000 6 20 1007 9.90000 13 276
2000031S11074 2000 8 SI MM DAMIENNE 2000-02-05 03:00:00 TS -18.3570 62.3503 main 527 465 _____P________ -1 -18.3570 62.3503 6 20 1007 12 275
2000031S11074 2000 8 SI MM DAMIENNE 2000-02-05 06:00:00 TS -18.3000 61.7000 20 1008 reunion main 465 406 _____O________ -1 -18.3000 61.7000 6 20 1008 9.90000 13 278
2000031S11074 2000 8 SI MM DAMIENNE 2000-02-05 09:00:00 TS -18.1798 60.9726 main 406 352 _____P________ -1 -18.1798 60.9726 6 20 1008 15 282
2000031S11074 2000 8 SI MM DAMIENNE 2000-02-05 12:00:00 TS -18.0000 60.2000 20 1008 reunion main 352 319 _____O________ -1 -18.0000 60.2000 6 20 1008 9.90000 15 285
2000031S11074 2000 8 SI MM DAMIENNE 2000-02-05 15:00:00 TS -17.7723 59.4076 main 313 302 _____P________ -1 -17.7723 59.4076 6 20 1008 16 288
2000031S11074 2000 8 SI MM DAMIENNE 2000-02-05 18:00:00 TS -17.5000 58.6000 20 1009 reunion main 305 302 _____O________ -1 -17.5000 58.6000 6 20 1009 9.90000 17 290
2000031S11074 2000 8 SI MM DAMIENNE 2000-02-05 21:00:00 TS -17.2150 57.7701 main 324 324 _____P________ -1 -17.2150 57.7701 6 20 1009 16 291
2000031S11074 2000 8 SI MM DAMIENNE 2000-02-06 00:00:00 TS -16.9000 57.0000 20 1009 reunion main 361 361 _____O________ -1 -16.9000 57.0000 6 20 1009 9.90000 15 297
2000031S11074 2000 8 SI MM DAMIENNE 2000-02-06 03:00:00 TS -16.5420 56.3777 main 419 419 _____P________ -1 -16.5420 56.3777 6 17 1009 14 301
2000031S11074 2000 8 SI MM DAMIENNE 2000-02-06 06:00:00 TS -16.2000 55.8000 15 1010 reunion main 471 471 _____O________ -1 -16.2000 55.8000 6 15 1010 9.90000 13 298
2000031S11074 2000 8 SI MM DAMIENNE 2000-02-06 09:00:00 TS -15.9123 55.1651 main 506 429 _____P________ -1 -15.9123 55.1651 6 15 1010 13 292
2000031S11074 2000 8 SI MM DAMIENNE 2000-02-06 12:00:00 TS -15.7000 54.5000 15 1010 reunion main 429 365 _____O________ -1 -15.7000 54.5000 6 15 1010 9.90000 13 284
2000031S11074 2000 8 SI MM DAMIENNE 2000-02-06 15:00:00 TS -15.5773 53.8153 main 354 278 _____P________ -1 -15.5773 53.8153 6 15 1010 14 278
2000031S11074 2000 8 SI MM DAMIENNE 2000-02-06 18:00:00 TS -15.5000 53.1000 15 1010 reunion main 278 203 _____O________ -1 -15.5000 53.1000 6 15 1010 9.90000 14 277
2000031S11074 2000 8 SI MM DAMIENNE 2000-02-06 21:00:00 TS -15.4080 52.3572 main 203 118 _____P________ -1 -15.4080 52.3572 6 15 1010 15 278
2000031S11074 2000 8 SI MM DAMIENNE 2000-02-07 00:00:00 TS -15.3000 51.6000 15 1010 reunion main 118 _____O________ -1 -15.3000 51.6000 6 15 1010 9.90000 15 278

About IBTrACS Database

This database is a web-friendly format of International Best Track Archive for Climate Stewardship (IBTrACS), a global best track data archive curated by NOAA dating back to 1842.

Updated: 2021-10-08